sensor_id;sensor_type;location;lat;lon;timestamp;P1;durP1;ratioP1;P2;durP2;ratioP2
21392;SDS011;10857;52.228;21.026;2023-09-07T00:00:43;18.90;;;9.10;;
21392;SDS011;10857;52.228;21.026;2023-09-07T00:03:11;15.20;;;8.98;;
21392;SDS011;10857;52.228;21.026;2023-09-07T00:05:42;14.80;;;8.80;;
21392;SDS011;10857;52.228;21.026;2023-09-07T00:08:22;12.27;;;8.18;;
21392;SDS011;10857;52.228;21.026;2023-09-07T00:10:53;12.20;;;8.07;;
21392;SDS011;10857;52.228;21.026;2023-09-07T00:13:23;14.13;;;7.95;;
21392;SDS011;10857;52.228;21.026;2023-09-07T00:16:07;15.35;;;8.70;;
21392;SDS011;10857;52.228;21.026;2023-09-07T00:18:44;12.23;;;8.07;;
21392;SDS011;10857;52.228;21.026;2023-09-07T00:21:15;10.15;;;7.70;;
21392;SDS011;10857;52.228;21.026;2023-09-07T00:23:55;13.45;;;8.05;;
21392;SDS011;10857;52.228;21.026;2023-09-07T00:26:45;16.02;;;8.80;;
21392;SDS011;10857;52.228;21.026;2023-09-07T00:29:41;13.32;;;7.80;;
21392;SDS011;10857;52.228;21.026;2023-09-07T00:32:13;13.23;;;8.05;;
21392;SDS011;10857;52.228;21.026;2023-09-07T00:34:44;12.70;;;8.15;;
21392;SDS011;10857;52.228;21.026;2023-09-07T00:37:25;13.45;;;8.07;;
21392;SDS011;10857;52.228;21.026;2023-09-07T00:40:00;13.15;;;8.38;;
21392;SDS011;10857;52.228;21.026;2023-09-07T00:42:40;13.80;;;7.95;;
21392;SDS011;10857;52.228;21.026;2023-09-07T00:45:13;13.32;;;8.20;;
21392;SDS011;10857;52.228;21.026;2023-09-07T00:47:47;10.20;;;8.13;;
21392;SDS011;10857;52.228;21.026;2023-09-07T00:50:29;14.55;;;8.05;;
21392;SDS011;10857;52.228;21.026;2023-09-07T00:53:10;13.02;;;8.18;;
21392;SDS011;10857;52.228;21.026;2023-09-07T00:55:39;9.90;;;7.35;;
21392;SDS011;10857;52.228;21.026;2023-09-07T00:58:07;12.48;;;8.25;;
21392;SDS011;10857;52.228;21.026;2023-09-07T01:00:43;12.18;;;8.32;;
21392;SDS011;10857;52.228;21.026;2023-09-07T01:03:28;13.25;;;7.80;;
21392;SDS011;10857;52.228;21.026;2023-09-07T01:06:03;9.45;;;7.70;;
21392;SDS011;10857;52.228;21.026;2023-09-07T01:08:42;14.05;;;8.02;;
21392;SDS011;10857;52.228;21.026;2023-09-07T01:11:20;11.27;;;8.50;;
21392;SDS011;10857;52.228;21.026;2023-09-07T01:13:55;11.75;;;7.93;;
21392;SDS011;10857;52.228;21.026;2023-09-07T01:16:28;12.00;;;8.05;;
21392;SDS011;10857;52.228;21.026;2023-09-07T01:19:30;13.10;;;8.43;;
21392;SDS011;10857;52.228;21.026;2023-09-07T01:21:58;18.13;;;8.57;;
21392;SDS011;10857;52.228;21.026;2023-09-07T01:24:31;16.15;;;8.30;;
21392;SDS011;10857;52.228;21.026;2023-09-07T01:27:12;13.57;;;8.55;;
21392;SDS011;10857;52.228;21.026;2023-09-07T01:29:53;15.27;;;9.23;;
21392;SDS011;10857;52.228;21.026;2023-09-07T01:32:25;14.10;;;8.98;;
21392;SDS011;10857;52.228;21.026;2023-09-07T01:35:00;17.88;;;9.80;;
21392;SDS011;10857;52.228;21.026;2023-09-07T01:37:45;14.30;;;9.20;;
21392;SDS011;10857;52.228;21.026;2023-09-07T01:40:21;14.80;;;9.75;;
21392;SDS011;10857;52.228;21.026;2023-09-07T01:42:57;15.10;;;9.70;;
21392;SDS011;10857;52.228;21.026;2023-09-07T01:45:59;16.08;;;9.68;;
21392;SDS011;10857;52.228;21.026;2023-09-07T01:48:57;17.08;;;10.32;;
21392;SDS011;10857;52.228;21.026;2023-09-07T01:51:29;14.85;;;9.68;;
21392;SDS011;10857;52.228;21.026;2023-09-07T01:54:15;15.48;;;9.60;;
21392;SDS011;10857;52.228;21.026;2023-09-07T01:57:45;18.23;;;10.35;;
21392;SDS011;10857;52.228;21.026;2023-09-07T02:00:23;16.75;;;10.05;;
21392;SDS011;10857;52.228;21.026;2023-09-07T02:03:19;19.95;;;10.77;;
21392;SDS011;10857;52.228;21.026;2023-09-07T02:06:09;18.13;;;10.50;;
21392;SDS011;10857;52.228;21.026;2023-09-07T02:08:46;18.30;;;10.80;;
21392;SDS011;10857;52.228;21.026;2023-09-07T02:11:29;24.85;;;10.90;;
21392;SDS011;10857;52.228;21.026;2023-09-07T02:14:34;27.77;;;11.20;;
21392;SDS011;10857;52.228;21.026;2023-09-07T02:17:15;20.38;;;10.38;;
21392;SDS011;10857;52.228;21.026;2023-09-07T02:19:52;21.77;;;10.77;;
21392;SDS011;10857;52.228;21.026;2023-09-07T02:22:39;20.42;;;10.45;;
21392;SDS011;10857;52.228;21.026;2023-09-07T02:25:08;20.35;;;11.23;;
21392;SDS011;10857;52.228;21.026;2023-09-07T02:27:44;18.45;;;10.35;;
21392;SDS011;10857;52.228;21.026;2023-09-07T02:30:13;17.63;;;10.38;;
21392;SDS011;10857;52.228;21.026;2023-09-07T02:32:55;18.73;;;10.30;;
21392;SDS011;10857;52.228;21.026;2023-09-07T02:35:29;15.05;;;10.13;;
21392;SDS011;10857;52.228;21.026;2023-09-07T02:38:06;16.85;;;10.95;;
21392;SDS011;10857;52.228;21.026;2023-09-07T02:40:43;17.50;;;10.75;;
21392;SDS011;10857;52.228;21.026;2023-09-07T02:43:15;22.05;;;10.95;;
21392;SDS011;10857;52.228;21.026;2023-09-07T02:45:44;18.13;;;10.20;;
21392;SDS011;10857;52.228;21.026;2023-09-07T02:48:26;17.05;;;11.10;;
21392;SDS011;10857;52.228;21.026;2023-09-07T02:51:40;17.42;;;10.95;;
21392;SDS011;10857;52.228;21.026;2023-09-07T02:54:33;16.55;;;10.85;;
21392;SDS011;10857;52.228;21.026;2023-09-07T02:57:28;19.83;;;11.23;;
21392;SDS011;10857;52.228;21.026;2023-09-07T03:00:40;19.08;;;10.57;;
21392;SDS011;10857;52.228;21.026;2023-09-07T03:03:22;17.13;;;11.10;;
21392;SDS011;10857;52.228;21.026;2023-09-07T03:06:19;19.08;;;11.20;;
21392;SDS011;10857;52.228;21.026;2023-09-07T03:08:53;15.93;;;11.10;;
21392;SDS011;10857;52.228;21.026;2023-09-07T03:11:26;20.42;;;11.32;;
21392;SDS011;10857;52.228;21.026;2023-09-07T03:14:04;16.55;;;10.57;;
21392;SDS011;10857;52.228;21.026;2023-09-07T03:16:36;21.05;;;11.07;;
21392;SDS011;10857;52.228;21.026;2023-09-07T03:19:08;20.48;;;10.73;;
21392;SDS011;10857;52.228;21.026;2023-09-07T03:21:38;18.27;;;10.38;;
21392;SDS011;10857;52.228;21.026;2023-09-07T03:24:10;20.65;;;11.10;;
21392;SDS011;10857;52.228;21.026;2023-09-07T03:26:43;21.83;;;10.63;;
21392;SDS011;10857;52.228;21.026;2023-09-07T03:29:18;19.05;;;11.88;;
21392;SDS011;10857;52.228;21.026;2023-09-07T03:31:56;24.67;;;11.27;;
21392;SDS011;10857;52.228;21.026;2023-09-07T03:34:32;14.73;;;10.25;;
21392;SDS011;10857;52.228;21.026;2023-09-07T03:37:16;19.58;;;11.48;;
21392;SDS011;10857;52.228;21.026;2023-09-07T03:39:47;21.63;;;11.40;;
21392;SDS011;10857;52.228;21.026;2023-09-07T03:42:15;18.70;;;11.23;;
21392;SDS011;10857;52.228;21.026;2023-09-07T03:44:48;19.15;;;11.45;;
21392;SDS011;10857;52.228;21.026;2023-09-07T03:47:21;18.17;;;11.80;;
21392;SDS011;10857;52.228;21.026;2023-09-07T03:49:59;18.27;;;12.65;;
21392;SDS011;10857;52.228;21.026;2023-09-07T03:52:48;19.55;;;12.25;;
21392;SDS011;10857;52.228;21.026;2023-09-07T03:55:42;19.60;;;13.63;;
21392;SDS011;10857;52.228;21.026;2023-09-07T03:59:00;21.00;;;13.02;;
21392;SDS011;10857;52.228;21.026;2023-09-07T04:01:50;19.27;;;12.15;;
21392;SDS011;10857;52.228;21.026;2023-09-07T04:04:27;21.17;;;12.73;;
21392;SDS011;10857;52.228;21.026;2023-09-07T04:07:06;21.48;;;12.80;;
21392;SDS011;10857;52.228;21.026;2023-09-07T04:10:01;19.65;;;13.18;;
21392;SDS011;10857;52.228;21.026;2023-09-07T04:12:57;18.58;;;13.40;;
21392;SDS011;10857;52.228;21.026;2023-09-07T04:15:44;22.00;;;13.38;;
21392;SDS011;10857;52.228;21.026;2023-09-07T04:18:36;20.92;;;12.57;;
21392;SDS011;10857;52.228;21.026;2023-09-07T04:21:20;23.48;;;13.30;;
21392;SDS011;10857;52.228;21.026;2023-09-07T04:23:58;22.25;;;13.32;;
21392;SDS011;10857;52.228;21.026;2023-09-07T04:26:34;21.50;;;13.57;;
21392;SDS011;10857;52.228;21.026;2023-09-07T04:29:09;22.13;;;14.30;;
21392;SDS011;10857;52.228;21.026;2023-09-07T04:31:48;29.02;;;14.52;;
21392;SDS011;10857;52.228;21.026;2023-09-07T04:34:37;23.17;;;14.75;;
21392;SDS011;10857;52.228;21.026;2023-09-07T04:37:35;21.75;;;14.43;;
21392;SDS011;10857;52.228;21.026;2023-09-07T04:40:26;29.80;;;15.05;;
21392;SDS011;10857;52.228;21.026;2023-09-07T04:43:11;31.48;;;14.73;;
21392;SDS011;10857;52.228;21.026;2023-09-07T04:46:08;28.55;;;15.35;;
21392;SDS011;10857;52.228;21.026;2023-09-07T04:49:34;23.15;;;15.05;;
21392;SDS011;10857;52.228;21.026;2023-09-07T04:52:22;24.88;;;15.50;;
21392;SDS011;10857;52.228;21.026;2023-09-07T04:55:02;28.10;;;16.05;;
21392;SDS011;10857;52.228;21.026;2023-09-07T04:57:36;27.50;;;15.48;;
21392;SDS011;10857;52.228;21.026;2023-09-07T05:00:07;22.73;;;14.82;;
21392;SDS011;10857;52.228;21.026;2023-09-07T05:02:47;22.95;;;14.73;;
21392;SDS011;10857;52.228;21.026;2023-09-07T05:05:18;23.88;;;15.50;;
21392;SDS011;10857;52.228;21.026;2023-09-07T05:07:50;33.55;;;17.13;;
21392;SDS011;10857;52.228;21.026;2023-09-07T05:10:25;25.00;;;15.75;;
21392;SDS011;10857;52.228;21.026;2023-09-07T05:13:17;29.02;;;17.45;;
21392;SDS011;10857;52.228;21.026;2023-09-07T05:15:50;28.90;;;19.13;;
21392;SDS011;10857;52.228;21.026;2023-09-07T05:18:23;30.65;;;20.08;;
21392;SDS011;10857;52.228;21.026;2023-09-07T05:20:52;36.17;;;19.48;;
21392;SDS011;10857;52.228;21.026;2023-09-07T05:23:25;33.50;;;20.33;;
21392;SDS011;10857;52.228;21.026;2023-09-07T05:25:57;26.48;;;19.27;;
21392;SDS011;10857;52.228;21.026;2023-09-07T05:28:42;32.10;;;19.95;;
21392;SDS011;10857;52.228;21.026;2023-09-07T05:31:13;28.77;;;20.30;;
21392;SDS011;10857;52.228;21.026;2023-09-07T05:33:47;29.70;;;22.05;;
21392;SDS011;10857;52.228;21.026;2023-09-07T05:36:21;37.17;;;21.15;;
21392;SDS011;10857;52.228;21.026;2023-09-07T05:38:49;35.63;;;21.02;;
21392;SDS011;10857;52.228;21.026;2023-09-07T05:41:20;30.27;;;20.70;;
21392;SDS011;10857;52.228;21.026;2023-09-07T05:43:51;36.63;;;21.63;;
21392;SDS011;10857;52.228;21.026;2023-09-07T05:46:19;31.85;;;20.95;;
21392;SDS011;10857;52.228;21.026;2023-09-07T05:48:47;35.45;;;21.77;;
21392;SDS011;10857;52.228;21.026;2023-09-07T05:51:14;36.67;;;20.45;;
21392;SDS011;10857;52.228;21.026;2023-09-07T05:53:41;33.78;;;20.40;;
21392;SDS011;10857;52.228;21.026;2023-09-07T05:56:09;37.35;;;21.42;;
21392;SDS011;10857;52.228;21.026;2023-09-07T05:58:36;28.40;;;19.90;;
21392;SDS011;10857;52.228;21.026;2023-09-07T06:01:03;33.55;;;20.73;;
21392;SDS011;10857;52.228;21.026;2023-09-07T06:03:33;30.02;;;20.70;;
21392;SDS011;10857;52.228;21.026;2023-09-07T06:06:03;33.38;;;21.10;;
21392;SDS011;10857;52.228;21.026;2023-09-07T06:08:31;39.88;;;22.77;;
21392;SDS011;10857;52.228;21.026;2023-09-07T06:10:59;30.02;;;20.77;;
21392;SDS011;10857;52.228;21.026;2023-09-07T06:13:28;34.78;;;20.92;;
21392;SDS011;10857;52.228;21.026;2023-09-07T06:15:56;30.75;;;20.52;;
21392;SDS011;10857;52.228;21.026;2023-09-07T06:18:28;36.17;;;21.42;;
21392;SDS011;10857;52.228;21.026;2023-09-07T06:20:57;36.92;;;21.35;;
21392;SDS011;10857;52.228;21.026;2023-09-07T06:23:25;37.72;;;21.67;;
21392;SDS011;10857;52.228;21.026;2023-09-07T06:25:54;44.30;;;23.45;;
21392;SDS011;10857;52.228;21.026;2023-09-07T06:28:21;41.17;;;23.88;;
21392;SDS011;10857;52.228;21.026;2023-09-07T06:30:49;46.47;;;23.23;;
21392;SDS011;10857;52.228;21.026;2023-09-07T06:33:18;35.38;;;22.83;;
21392;SDS011;10857;52.228;21.026;2023-09-07T06:35:50;38.33;;;22.73;;
21392;SDS011;10857;52.228;21.026;2023-09-07T06:38:21;37.85;;;21.38;;
21392;SDS011;10857;52.228;21.026;2023-09-07T06:40:51;33.38;;;21.65;;
21392;SDS011;10857;52.228;21.026;2023-09-07T06:43:20;32.97;;;20.40;;
21392;SDS011;10857;52.228;21.026;2023-09-07T06:45:51;32.78;;;20.60;;
21392;SDS011;10857;52.228;21.026;2023-09-07T06:48:19;34.42;;;20.35;;
21392;SDS011;10857;52.228;21.026;2023-09-07T06:50:46;38.38;;;20.63;;
21392;SDS011;10857;52.228;21.026;2023-09-07T06:53:15;41.13;;;21.40;;
21392;SDS011;10857;52.228;21.026;2023-09-07T06:55:44;53.42;;;22.92;;
21392;SDS011;10857;52.228;21.026;2023-09-07T06:58:15;44.58;;;21.55;;
21392;SDS011;10857;52.228;21.026;2023-09-07T07:00:47;45.60;;;21.00;;
21392;SDS011;10857;52.228;21.026;2023-09-07T07:03:15;46.13;;;21.30;;
21392;SDS011;10857;52.228;21.026;2023-09-07T07:05:43;45.50;;;20.02;;
21392;SDS011;10857;52.228;21.026;2023-09-07T07:08:12;45.60;;;20.23;;
21392;SDS011;10857;52.228;21.026;2023-09-07T07:10:40;41.08;;;20.13;;
21392;SDS011;10857;52.228;21.026;2023-09-07T07:13:08;38.88;;;19.77;;
21392;SDS011;10857;52.228;21.026;2023-09-07T07:15:37;32.75;;;18.85;;
21392;SDS011;10857;52.228;21.026;2023-09-07T07:18:06;40.17;;;20.40;;
21392;SDS011;10857;52.228;21.026;2023-09-07T07:20:39;32.00;;;18.05;;
21392;SDS011;10857;52.228;21.026;2023-09-07T07:23:08;37.10;;;17.67;;
21392;SDS011;10857;52.228;21.026;2023-09-07T07:25:54;25.48;;;17.92;;
21392;SDS011;10857;52.228;21.026;2023-09-07T07:28:49;30.98;;;18.48;;
21392;SDS011;10857;52.228;21.026;2023-09-07T07:31:18;36.08;;;18.23;;
21392;SDS011;10857;52.228;21.026;2023-09-07T07:33:46;31.33;;;17.58;;
21392;SDS011;10857;52.228;21.026;2023-09-07T07:36:15;34.03;;;17.33;;
21392;SDS011;10857;52.228;21.026;2023-09-07T07:38:43;35.47;;;17.88;;
21392;SDS011;10857;52.228;21.026;2023-09-07T07:41:16;32.13;;;17.40;;
21392;SDS011;10857;52.228;21.026;2023-09-07T07:43:43;36.72;;;18.10;;
21392;SDS011;10857;52.228;21.026;2023-09-07T07:46:11;38.40;;;17.23;;
21392;SDS011;10857;52.228;21.026;2023-09-07T07:48:38;34.85;;;17.02;;
21392;SDS011;10857;52.228;21.026;2023-09-07T07:51:05;32.78;;;17.48;;
21392;SDS011;10857;52.228;21.026;2023-09-07T07:53:38;29.52;;;16.48;;
21392;SDS011;10857;52.228;21.026;2023-09-07T07:56:05;33.28;;;16.85;;
21392;SDS011;10857;52.228;21.026;2023-09-07T07:58:33;30.77;;;17.42;;
21392;SDS011;10857;52.228;21.026;2023-09-07T08:01:01;36.70;;;17.23;;
21392;SDS011;10857;52.228;21.026;2023-09-07T08:03:30;31.25;;;16.75;;
21392;SDS011;10857;52.228;21.026;2023-09-07T08:06:01;31.20;;;17.05;;
21392;SDS011;10857;52.228;21.026;2023-09-07T08:08:28;27.17;;;17.00;;
21392;SDS011;10857;52.228;21.026;2023-09-07T08:10:57;25.70;;;16.75;;
21392;SDS011;10857;52.228;21.026;2023-09-07T08:13:27;28.60;;;17.50;;
21392;SDS011;10857;52.228;21.026;2023-09-07T08:15:57;26.85;;;17.27;;
21392;SDS011;10857;52.228;21.026;2023-09-07T08:18:24;30.60;;;16.95;;
21392;SDS011;10857;52.228;21.026;2023-09-07T08:20:55;34.67;;;18.30;;
21392;SDS011;10857;52.228;21.026;2023-09-07T08:23:22;29.67;;;17.85;;
21392;SDS011;10857;52.228;21.026;2023-09-07T08:25:51;30.15;;;17.40;;
21392;SDS011;10857;52.228;21.026;2023-09-07T08:28:27;32.75;;;18.48;;
21392;SDS011;10857;52.228;21.026;2023-09-07T08:30:58;28.98;;;19.52;;
21392;SDS011;10857;52.228;21.026;2023-09-07T08:33:32;30.38;;;17.95;;
21392;SDS011;10857;52.228;21.026;2023-09-07T08:36:10;30.25;;;18.30;;
21392;SDS011;10857;52.228;21.026;2023-09-07T08:38:39;31.20;;;17.83;;
21392;SDS011;10857;52.228;21.026;2023-09-07T08:41:07;31.17;;;18.10;;
21392;SDS011;10857;52.228;21.026;2023-09-07T08:43:38;28.48;;;17.65;;
21392;SDS011;10857;52.228;21.026;2023-09-07T08:46:17;27.17;;;17.13;;
21392;SDS011;10857;52.228;21.026;2023-09-07T08:48:48;31.00;;;17.40;;
21392;SDS011;10857;52.228;21.026;2023-09-07T08:51:21;26.05;;;17.80;;
21392;SDS011;10857;52.228;21.026;2023-09-07T08:53:49;28.92;;;15.93;;
21392;SDS011;10857;52.228;21.026;2023-09-07T08:56:16;27.58;;;16.77;;
21392;SDS011;10857;52.228;21.026;2023-09-07T08:58:44;28.08;;;15.50;;
21392;SDS011;10857;52.228;21.026;2023-09-07T09:01:11;26.58;;;16.67;;
21392;SDS011;10857;52.228;21.026;2023-09-07T09:03:43;29.55;;;16.50;;
21392;SDS011;10857;52.228;21.026;2023-09-07T09:06:10;24.58;;;15.88;;
21392;SDS011;10857;52.228;21.026;2023-09-07T09:08:44;27.93;;;15.63;;
21392;SDS011;10857;52.228;21.026;2023-09-07T09:11:17;26.25;;;16.20;;
21392;SDS011;10857;52.228;21.026;2023-09-07T09:13:45;26.03;;;15.83;;
21392;SDS011;10857;52.228;21.026;2023-09-07T09:16:25;30.25;;;18.33;;
21392;SDS011;10857;52.228;21.026;2023-09-07T09:19:16;26.17;;;14.90;;
21392;SDS011;10857;52.228;21.026;2023-09-07T09:22:00;31.38;;;15.68;;
21392;SDS011;10857;52.228;21.026;2023-09-07T09:24:33;25.80;;;13.80;;
21392;SDS011;10857;52.228;21.026;2023-09-07T09:27:02;23.58;;;14.82;;
21392;SDS011;10857;52.228;21.026;2023-09-07T09:29:34;24.33;;;13.75;;
21392;SDS011;10857;52.228;21.026;2023-09-07T09:32:04;20.50;;;11.75;;
21392;SDS011;10857;52.228;21.026;2023-09-07T09:34:38;19.10;;;12.05;;
21392;SDS011;10857;52.228;21.026;2023-09-07T09:37:12;19.20;;;12.75;;
21392;SDS011;10857;52.228;21.026;2023-09-07T09:39:48;21.98;;;10.50;;
21392;SDS011;10857;52.228;21.026;2023-09-07T09:42:18;23.95;;;10.50;;
21392;SDS011;10857;52.228;21.026;2023-09-07T09:44:49;21.10;;;10.23;;
21392;SDS011;10857;52.228;21.026;2023-09-07T09:47:26;14.63;;;9.80;;
21392;SDS011;10857;52.228;21.026;2023-09-07T09:49:57;25.30;;;18.98;;
21392;SDS011;10857;52.228;21.026;2023-09-07T09:52:25;13.45;;;10.27;;
21392;SDS011;10857;52.228;21.026;2023-09-07T09:54:53;13.48;;;8.73;;
21392;SDS011;10857;52.228;21.026;2023-09-07T09:57:22;12.73;;;8.18;;
21392;SDS011;10857;52.228;21.026;2023-09-07T09:59:51;16.80;;;8.32;;
21392;SDS011;10857;52.228;21.026;2023-09-07T10:02:19;15.93;;;8.25;;
21392;SDS011;10857;52.228;21.026;2023-09-07T10:04:46;16.90;;;8.55;;
21392;SDS011;10857;52.228;21.026;2023-09-07T10:07:14;13.93;;;9.18;;
21392;SDS011;10857;52.228;21.026;2023-09-07T10:09:41;15.77;;;10.55;;
21392;SDS011;10857;52.228;21.026;2023-09-07T10:12:12;12.70;;;7.72;;
21392;SDS011;10857;52.228;21.026;2023-09-07T10:14:43;7.90;;;6.63;;
21392;SDS011;10857;52.228;21.026;2023-09-07T10:17:21;16.17;;;8.13;;
21392;SDS011;10857;52.228;21.026;2023-09-07T10:19:49;13.05;;;7.53;;
21392;SDS011;10857;52.228;21.026;2023-09-07T10:22:21;9.07;;;6.63;;
21392;SDS011;10857;52.228;21.026;2023-09-07T10:24:58;10.57;;;7.22;;
21392;SDS011;10857;52.228;21.026;2023-09-07T10:27:36;9.52;;;6.57;;
21392;SDS011;10857;52.228;21.026;2023-09-07T10:30:10;10.55;;;7.25;;
21392;SDS011;10857;52.228;21.026;2023-09-07T10:32:39;11.02;;;6.43;;
21392;SDS011;10857;52.228;21.026;2023-09-07T10:35:14;9.35;;;6.60;;
21392;SDS011;10857;52.228;21.026;2023-09-07T10:37:44;8.20;;;6.22;;
21392;SDS011;10857;52.228;21.026;2023-09-07T10:40:23;10.38;;;6.28;;
21392;SDS011;10857;52.228;21.026;2023-09-07T10:43:05;11.15;;;6.50;;
21392;SDS011;10857;52.228;21.026;2023-09-07T10:45:45;8.40;;;6.50;;
21392;SDS011;10857;52.228;21.026;2023-09-07T10:48:16;8.38;;;5.65;;
21392;SDS011;10857;52.228;21.026;2023-09-07T10:50:57;13.73;;;6.30;;
21392;SDS011;10857;52.228;21.026;2023-09-07T10:53:29;8.88;;;5.90;;
21392;SDS011;10857;52.228;21.026;2023-09-07T10:56:02;12.77;;;5.90;;
21392;SDS011;10857;52.228;21.026;2023-09-07T10:58:36;10.23;;;6.00;;
21392;SDS011;10857;52.228;21.026;2023-09-07T11:01:09;8.23;;;5.97;;
21392;SDS011;10857;52.228;21.026;2023-09-07T11:03:42;9.60;;;5.90;;
21392;SDS011;10857;52.228;21.026;2023-09-07T11:06:16;6.60;;;5.82;;
21392;SDS011;10857;52.228;21.026;2023-09-07T11:08:48;6.30;;;5.70;;
21392;SDS011;10857;52.228;21.026;2023-09-07T11:11:15;9.55;;;5.78;;
21392;SDS011;10857;52.228;21.026;2023-09-07T11:13:43;8.52;;;5.78;;
21392;SDS011;10857;52.228;21.026;2023-09-07T11:16:10;12.30;;;5.82;;
21392;SDS011;10857;52.228;21.026;2023-09-07T11:18:38;9.95;;;5.85;;
21392;SDS011;10857;52.228;21.026;2023-09-07T11:21:10;7.95;;;5.65;;
21392;SDS011;10857;52.228;21.026;2023-09-07T11:23:38;10.13;;;5.95;;
21392;SDS011;10857;52.228;21.026;2023-09-07T11:26:07;6.82;;;6.13;;
21392;SDS011;10857;52.228;21.026;2023-09-07T11:28:39;7.88;;;5.55;;
21392;SDS011;10857;52.228;21.026;2023-09-07T11:31:13;9.52;;;5.68;;
21392;SDS011;10857;52.228;21.026;2023-09-07T11:33:48;8.52;;;5.70;;
21392;SDS011;10857;52.228;21.026;2023-09-07T11:36:16;7.28;;;5.38;;
21392;SDS011;10857;52.228;21.026;2023-09-07T11:38:43;8.95;;;5.63;;
21392;SDS011;10857;52.228;21.026;2023-09-07T11:41:11;7.35;;;5.45;;
21392;SDS011;10857;52.228;21.026;2023-09-07T11:43:38;8.38;;;5.10;;
21392;SDS011;10857;52.228;21.026;2023-09-07T11:46:06;7.63;;;4.70;;
21392;SDS011;10857;52.228;21.026;2023-09-07T11:48:37;5.70;;;5.05;;
21392;SDS011;10857;52.228;21.026;2023-09-07T11:51:08;6.43;;;4.47;;
21392;SDS011;10857;52.228;21.026;2023-09-07T11:53:35;5.70;;;4.60;;
21392;SDS011;10857;52.228;21.026;2023-09-07T11:56:02;5.45;;;4.95;;
21392;SDS011;10857;52.228;21.026;2023-09-07T11:58:30;6.38;;;4.60;;
21392;SDS011;10857;52.228;21.026;2023-09-07T12:00:58;6.85;;;4.97;;
21392;SDS011;10857;52.228;21.026;2023-09-07T12:03:27;12.00;;;5.05;;
21392;SDS011;10857;52.228;21.026;2023-09-07T12:05:57;5.65;;;4.85;;
21392;SDS011;10857;52.228;21.026;2023-09-07T12:08:24;5.88;;;4.68;;
21392;SDS011;10857;52.228;21.026;2023-09-07T12:10:53;6.43;;;4.55;;
21392;SDS011;10857;52.228;21.026;2023-09-07T12:13:23;8.40;;;4.97;;
21392;SDS011;10857;52.228;21.026;2023-09-07T12:15:52;6.18;;;4.97;;
21392;SDS011;10857;52.228;21.026;2023-09-07T12:18:19;8.05;;;5.72;;
21392;SDS011;10857;52.228;21.026;2023-09-07T12:20:46;10.95;;;6.10;;
21392;SDS011;10857;52.228;21.026;2023-09-07T12:23:14;9.48;;;5.55;;
21392;SDS011;10857;52.228;21.026;2023-09-07T12:25:43;6.97;;;4.70;;
21392;SDS011;10857;52.228;21.026;2023-09-07T12:28:10;5.53;;;4.95;;
21392;SDS011;10857;52.228;21.026;2023-09-07T12:30:38;4.97;;;4.47;;
21392;SDS011;10857;52.228;21.026;2023-09-07T12:33:07;7.50;;;4.57;;
21392;SDS011;10857;52.228;21.026;2023-09-07T12:35:39;5.85;;;4.30;;
21392;SDS011;10857;52.228;21.026;2023-09-07T12:38:06;5.55;;;4.43;;
21392;SDS011;10857;52.228;21.026;2023-09-07T12:40:33;7.97;;;4.60;;
21392;SDS011;10857;52.228;21.026;2023-09-07T12:43:03;7.20;;;4.60;;
21392;SDS011;10857;52.228;21.026;2023-09-07T12:45:32;5.32;;;4.00;;
21392;SDS011;10857;52.228;21.026;2023-09-07T12:47:59;4.55;;;4.10;;
21392;SDS011;10857;52.228;21.026;2023-09-07T12:50:28;7.90;;;4.35;;
21392;SDS011;10857;52.228;21.026;2023-09-07T12:53:27;6.30;;;4.30;;
21392;SDS011;10857;52.228;21.026;2023-09-07T12:55:57;11.63;;;4.93;;
21392;SDS011;10857;52.228;21.026;2023-09-07T12:58:25;7.05;;;4.35;;
21392;SDS011;10857;52.228;21.026;2023-09-07T13:00:52;12.27;;;7.03;;
21392;SDS011;10857;52.228;21.026;2023-09-07T13:03:19;8.52;;;5.05;;
21392;SDS011;10857;52.228;21.026;2023-09-07T13:05:47;9.13;;;4.72;;
21392;SDS011;10857;52.228;21.026;2023-09-07T13:08:23;4.30;;;3.90;;
21392;SDS011;10857;52.228;21.026;2023-09-07T13:10:51;8.48;;;4.38;;
21392;SDS011;10857;52.228;21.026;2023-09-07T13:13:21;8.52;;;4.55;;
21392;SDS011;10857;52.228;21.026;2023-09-07T13:15:50;8.60;;;4.45;;
21392;SDS011;10857;52.228;21.026;2023-09-07T13:18:18;5.13;;;4.15;;
21392;SDS011;10857;52.228;21.026;2023-09-07T13:20:46;6.05;;;3.90;;
21392;SDS011;10857;52.228;21.026;2023-09-07T13:23:18;6.30;;;4.22;;
21392;SDS011;10857;52.228;21.026;2023-09-07T13:26:01;11.18;;;5.93;;
21392;SDS011;10857;52.228;21.026;2023-09-07T13:28:29;12.23;;;5.47;;
21392;SDS011;10857;52.228;21.026;2023-09-07T13:30:58;11.48;;;6.10;;
21392;SDS011;10857;52.228;21.026;2023-09-07T13:33:26;8.38;;;4.13;;
21392;SDS011;10857;52.228;21.026;2023-09-07T13:35:56;7.55;;;4.85;;
21392;SDS011;10857;52.228;21.026;2023-09-07T13:38:23;6.00;;;4.47;;
21392;SDS011;10857;52.228;21.026;2023-09-07T13:40:51;8.30;;;4.35;;
21392;SDS011;10857;52.228;21.026;2023-09-07T13:43:18;7.72;;;4.65;;
21392;SDS011;10857;52.228;21.026;2023-09-07T13:45:46;5.13;;;4.30;;
21392;SDS011;10857;52.228;21.026;2023-09-07T13:48:14;10.82;;;6.75;;
21392;SDS011;10857;52.228;21.026;2023-09-07T13:50:41;8.90;;;5.85;;
21392;SDS011;10857;52.228;21.026;2023-09-07T13:53:09;8.40;;;4.80;;
21392;SDS011;10857;52.228;21.026;2023-09-07T13:55:37;9.25;;;4.30;;
21392;SDS011;10857;52.228;21.026;2023-09-07T13:58:06;9.60;;;4.65;;
21392;SDS011;10857;52.228;21.026;2023-09-07T14:00:37;5.15;;;3.92;;
21392;SDS011;10857;52.228;21.026;2023-09-07T14:03:09;7.85;;;4.25;;
21392;SDS011;10857;52.228;21.026;2023-09-07T14:05:38;6.72;;;4.05;;
21392;SDS011;10857;52.228;21.026;2023-09-07T14:08:06;5.63;;;3.70;;
21392;SDS011;10857;52.228;21.026;2023-09-07T14:10:34;8.82;;;3.60;;
21392;SDS011;10857;52.228;21.026;2023-09-07T14:13:01;6.03;;;3.97;;
21392;SDS011;10857;52.228;21.026;2023-09-07T14:15:30;6.82;;;3.90;;
21392;SDS011;10857;52.228;21.026;2023-09-07T14:18:02;7.10;;;4.00;;
21392;SDS011;10857;52.228;21.026;2023-09-07T14:20:30;6.10;;;3.38;;
21392;SDS011;10857;52.228;21.026;2023-09-07T14:22:58;8.77;;;4.50;;
21392;SDS011;10857;52.228;21.026;2023-09-07T14:25:30;5.97;;;4.05;;
21392;SDS011;10857;52.228;21.026;2023-09-07T14:28:03;6.57;;;4.47;;
21392;SDS011;10857;52.228;21.026;2023-09-07T14:30:43;5.22;;;3.80;;
21392;SDS011;10857;52.228;21.026;2023-09-07T14:33:19;4.65;;;3.88;;
21392;SDS011;10857;52.228;21.026;2023-09-07T14:35:52;5.55;;;3.70;;
21392;SDS011;10857;52.228;21.026;2023-09-07T14:38:22;4.85;;;3.40;;
21392;SDS011;10857;52.228;21.026;2023-09-07T14:40:56;4.80;;;3.95;;
21392;SDS011;10857;52.228;21.026;2023-09-07T14:43:37;8.45;;;3.75;;
21392;SDS011;10857;52.228;21.026;2023-09-07T14:46:06;7.85;;;3.70;;
21392;SDS011;10857;52.228;21.026;2023-09-07T14:48:33;9.27;;;3.63;;
21392;SDS011;10857;52.228;21.026;2023-09-07T14:51:00;4.25;;;3.70;;
21392;SDS011;10857;52.228;21.026;2023-09-07T14:53:27;5.25;;;3.60;;
21392;SDS011;10857;52.228;21.026;2023-09-07T14:55:57;10.02;;;3.95;;
21392;SDS011;10857;52.228;21.026;2023-09-07T14:58:25;6.75;;;3.67;;